createdAt,value
2022-07-29T00:00:01.150Z,2.70
2022-07-29T00:02:28.822Z,2.42
2022-07-29T00:04:55.739Z,2.25
2022-07-29T00:07:22.659Z,2.40
2022-07-29T00:09:51.309Z,2.33
2022-07-29T00:12:26.318Z,2.20
2022-07-29T00:14:57.748Z,2.60
2022-07-29T00:17:25.737Z,2.58
2022-07-29T00:19:53.009Z,2.38
2022-07-29T00:22:21.118Z,2.65
2022-07-29T00:24:51.167Z,2.40
2022-07-29T00:27:19.119Z,2.45
2022-07-29T00:29:46.502Z,2.38
2022-07-29T00:32:13.338Z,2.22
2022-07-29T00:34:40.308Z,2.58
2022-07-29T00:37:07.878Z,2.40
2022-07-29T00:39:35.022Z,2.08
2022-07-29T00:42:05.117Z,2.25
2022-07-29T00:44:31.991Z,2.35
2022-07-29T00:46:58.864Z,2.55
2022-07-29T00:49:25.837Z,2.30
2022-07-29T00:51:52.672Z,2.60
2022-07-29T00:54:19.699Z,2.72
2022-07-29T00:56:46.640Z,2.58
2022-07-29T00:59:13.484Z,2.58
2022-07-29T01:01:40.402Z,2.50
2022-07-29T01:04:08.242Z,2.72
2022-07-29T01:06:35.749Z,2.47
2022-07-29T01:09:02.972Z,2.67
2022-07-29T01:11:29.944Z,2.47
2022-07-29T01:13:57.984Z,2.33
2022-07-29T01:16:34.288Z,2.58
2022-07-29T01:19:26.972Z,2.33
2022-07-29T01:22:01.520Z,2.58
2022-07-29T01:24:34.925Z,2.33
2022-07-29T01:27:48.214Z,2.60
2022-07-29T01:30:16.010Z,2.58
2022-07-29T01:32:48.677Z,2.13
2022-07-29T01:35:22.833Z,2.42
2022-07-29T01:38:09.417Z,2.40
2022-07-29T01:40:47.710Z,2.50
2022-07-29T01:43:18.727Z,2.33
2022-07-29T01:45:57.374Z,2.58
2022-07-29T01:48:32.285Z,2.60
2022-07-29T01:51:20.706Z,2.45
2022-07-29T01:53:55.207Z,2.60
2022-07-29T01:56:25.268Z,2.58
2022-07-29T01:58:54.379Z,2.70
2022-07-29T02:01:25.258Z,2.50
2022-07-29T02:03:54.511Z,2.50
2022-07-29T02:06:23.629Z,2.50
2022-07-29T02:08:53.761Z,2.50
2022-07-29T02:11:20.827Z,2.40
2022-07-29T02:13:50.490Z,2.65
2022-07-29T02:16:20.197Z,2.25
2022-07-29T02:18:50.870Z,2.40
2022-07-29T02:21:24.129Z,2.60
2022-07-29T02:23:53.550Z,2.60
2022-07-29T02:26:24.323Z,2.55
2022-07-29T02:28:55.041Z,2.28
2022-07-29T02:31:26.645Z,2.60
2022-07-29T02:33:55.784Z,2.72
2022-07-29T02:36:24.635Z,2.63
2022-07-29T02:38:52.484Z,2.72
2022-07-29T02:41:30.602Z,2.63
2022-07-29T02:44:04.812Z,2.67
2022-07-29T02:46:37.765Z,2.42
2022-07-29T02:49:16.497Z,2.80
2022-07-29T02:52:09.551Z,2.80
2022-07-29T02:54:42.203Z,2.80
2022-07-29T02:57:24.090Z,2.80
2022-07-29T02:59:53.997Z,2.80
2022-07-29T03:02:22.734Z,2.58
2022-07-29T03:04:51.827Z,2.80
2022-07-29T03:07:21.419Z,2.80
2022-07-29T03:09:49.056Z,2.80
2022-07-29T03:12:17.298Z,2.90
2022-07-29T03:14:45.407Z,2.60
2022-07-29T03:17:12.708Z,2.40
2022-07-29T03:19:40.758Z,2.70
2022-07-29T03:22:07.839Z,3.00
2022-07-29T03:24:36.827Z,2.58
2022-07-29T03:27:05.533Z,3.10
2022-07-29T03:29:34.513Z,2.95
2022-07-29T03:32:08.027Z,3.17
2022-07-29T03:34:37.116Z,2.57
2022-07-29T03:37:04.160Z,2.97
2022-07-29T03:39:36.258Z,2.65
2022-07-29T03:42:05.732Z,2.58
2022-07-29T03:44:33.700Z,3.10
2022-07-29T03:47:02.491Z,3.03
2022-07-29T03:49:30.678Z,2.78
2022-07-29T03:51:57.854Z,2.90
2022-07-29T03:54:24.733Z,3.13
2022-07-29T03:56:53.851Z,2.90
2022-07-29T03:59:22.175Z,2.93
2022-07-29T04:01:50.148Z,2.47
2022-07-29T04:04:18.052Z,2.78
2022-07-29T04:06:48.360Z,2.97
2022-07-29T04:09:15.746Z,2.80
2022-07-29T04:12:03.565Z,2.73
2022-07-29T04:14:31.791Z,3.05
2022-07-29T04:16:58.635Z,2.97
2022-07-29T04:19:25.740Z,3.20
2022-07-29T04:21:52.596Z,3.00
2022-07-29T04:24:19.722Z,3.03
2022-07-29T04:26:48.194Z,2.95
2022-07-29T04:29:14.925Z,3.00
2022-07-29T04:31:42.699Z,3.35
2022-07-29T04:34:09.741Z,3.13
2022-07-29T04:36:36.516Z,3.30
2022-07-29T04:39:04.273Z,2.92
2022-07-29T04:41:32.995Z,2.70
2022-07-29T04:44:00.907Z,3.40
2022-07-29T04:46:28.448Z,3.15
2022-07-29T04:48:55.371Z,3.30
2022-07-29T04:51:22.220Z,3.13
2022-07-29T04:53:49.071Z,3.00
2022-07-29T04:56:15.857Z,3.10
2022-07-29T04:58:42.682Z,3.75
2022-07-29T05:01:09.466Z,3.40
2022-07-29T05:03:36.328Z,3.33
2022-07-29T05:06:03.188Z,3.30
2022-07-29T05:08:30.165Z,3.53
2022-07-29T05:10:57.110Z,3.40
2022-07-29T05:13:23.943Z,3.33
2022-07-29T05:15:50.758Z,3.45
2022-07-29T05:18:17.572Z,2.70
2022-07-29T05:20:44.356Z,3.25
2022-07-29T05:23:11.105Z,2.85
2022-07-29T05:25:43.160Z,2.97
2022-07-29T05:28:11.445Z,2.90
2022-07-29T05:30:38.423Z,2.97
2022-07-29T05:33:05.220Z,3.20
2022-07-29T05:35:32.121Z,3.22
2022-07-29T05:37:58.896Z,3.03
2022-07-29T05:40:25.654Z,3.05
2022-07-29T05:42:52.697Z,3.03
2022-07-29T05:45:19.477Z,2.60
2022-07-29T05:47:46.289Z,2.88
2022-07-29T05:50:14.160Z,2.90
2022-07-29T05:52:41.034Z,3.00
2022-07-29T05:55:08.297Z,2.65
2022-07-29T05:57:35.068Z,2.75
2022-07-29T06:00:02.103Z,2.70
2022-07-29T06:02:39.128Z,3.40
2022-07-29T06:05:06.565Z,2.92
2022-07-29T06:07:38.671Z,2.63
2022-07-29T06:10:16.414Z,3.33
2022-07-29T06:12:43.204Z,3.30
2022-07-29T06:15:10.554Z,3.07
2022-07-29T06:17:37.421Z,3.00
2022-07-29T06:20:27.024Z,2.90
2022-07-29T06:22:54.132Z,2.90
2022-07-29T06:25:21.005Z,2.70
2022-07-29T06:27:47.885Z,2.87
2022-07-29T06:30:14.849Z,2.38
2022-07-29T06:32:43.362Z,2.33
2022-07-29T06:35:38.947Z,3.08
2022-07-29T06:37:58.021Z,2.72
2022-07-29T06:40:26.672Z,2.53
2022-07-29T06:42:53.611Z,2.70
2022-07-29T06:45:20.515Z,2.58
2022-07-29T06:47:47.482Z,3.67
2022-07-29T06:50:14.245Z,2.75
2022-07-29T06:52:41.375Z,2.60
2022-07-29T06:55:08.752Z,2.90
2022-07-29T06:57:35.735Z,2.60
2022-07-29T07:00:02.658Z,2.83
2022-07-29T07:02:29.530Z,2.45
2022-07-29T07:04:56.330Z,2.53
2022-07-29T07:07:23.212Z,2.75
2022-07-29T07:09:49.948Z,2.67
2022-07-29T07:12:16.930Z,2.80
2022-07-29T07:14:43.689Z,2.72
2022-07-29T07:17:10.503Z,3.03
2022-07-29T07:19:37.293Z,2.80
2022-07-29T07:22:04.092Z,2.65
2022-07-29T07:24:31.800Z,2.70
2022-07-29T07:26:58.629Z,2.65
2022-07-29T07:29:25.411Z,2.40
2022-07-29T07:31:55.168Z,2.40
2022-07-29T07:34:29.459Z,2.72
2022-07-29T07:36:56.727Z,2.55
2022-07-29T07:39:23.514Z,2.58
2022-07-29T07:41:50.547Z,2.50
2022-07-29T07:44:17.749Z,2.47
2022-07-29T07:46:44.795Z,2.83
2022-07-29T07:49:12.475Z,2.80
2022-07-29T07:51:39.387Z,2.88
2022-07-29T07:54:06.188Z,2.70
2022-07-29T07:56:35.392Z,2.85
2022-07-29T07:59:02.287Z,2.63
2022-07-29T08:01:29.202Z,3.20
2022-07-29T08:04:15.329Z,2.60
2022-07-29T08:06:42.816Z,2.70
2022-07-29T08:09:28.139Z,2.90
2022-07-29T08:11:56.529Z,2.83
2022-07-29T08:14:23.290Z,2.80
2022-07-29T08:16:50.181Z,2.45
2022-07-29T08:19:17.207Z,2.70
2022-07-29T08:21:44.091Z,2.80
2022-07-29T08:24:10.852Z,2.58
2022-07-29T08:26:37.568Z,2.88
2022-07-29T08:29:04.395Z,2.40
2022-07-29T08:31:31.269Z,2.60
2022-07-29T08:33:58.094Z,2.72
2022-07-29T08:36:25.616Z,2.95
2022-07-29T08:38:52.399Z,2.60
2022-07-29T08:41:20.840Z,2.67
2022-07-29T08:43:48.657Z,2.50
2022-07-29T08:46:15.568Z,2.95
2022-07-29T08:48:42.741Z,2.67
2022-07-29T08:51:10.526Z,2.42
2022-07-29T08:53:37.581Z,2.80
2022-07-29T08:56:04.651Z,2.80
2022-07-29T08:58:36.876Z,2.80
2022-07-29T09:01:06.896Z,2.92
2022-07-29T09:03:37.433Z,2.67
2022-07-29T09:06:05.111Z,2.80
2022-07-29T09:08:33.643Z,2.73
2022-07-29T09:11:04.097Z,3.05
2022-07-29T09:13:32.184Z,2.70
2022-07-29T09:15:59.007Z,2.90
2022-07-29T09:18:35.887Z,3.03
2022-07-29T09:21:04.329Z,2.87
2022-07-29T09:23:31.091Z,2.45
2022-07-29T09:26:06.811Z,2.35
2022-07-29T09:28:33.768Z,2.60
2022-07-29T09:31:00.570Z,2.70
2022-07-29T09:33:36.161Z,2.47
2022-07-29T09:36:07.608Z,2.35
2022-07-29T09:38:35.672Z,2.33
2022-07-29T09:41:06.489Z,2.60
2022-07-29T09:43:34.363Z,2.80
2022-07-29T09:46:19.196Z,2.47
2022-07-29T09:48:46.037Z,2.50
2022-07-29T09:51:24.179Z,2.50
2022-07-29T09:53:53.856Z,2.83
2022-07-29T09:56:20.647Z,2.67
2022-07-29T09:58:47.435Z,2.50
2022-07-29T10:01:14.322Z,2.50
2022-07-29T10:03:54.177Z,2.80
2022-07-29T10:06:21.124Z,2.78
2022-07-29T10:08:48.529Z,2.72
2022-07-29T10:11:18.196Z,2.63
2022-07-29T10:13:47.195Z,2.60
2022-07-29T10:16:15.313Z,2.60
2022-07-29T10:18:44.451Z,2.80
2022-07-29T10:21:22.606Z,2.40
2022-07-29T10:24:01.310Z,2.57
2022-07-29T10:26:30.558Z,2.58
2022-07-29T10:28:57.321Z,2.63
2022-07-29T10:31:37.659Z,2.90
2022-07-29T10:34:33.922Z,3.00
2022-07-29T10:37:14.115Z,2.80
2022-07-29T10:40:28.623Z,2.72
2022-07-29T10:43:01.682Z,2.92
2022-07-29T10:45:30.796Z,2.53
2022-07-29T10:48:05.794Z,2.90
2022-07-29T10:51:06.866Z,2.60
2022-07-29T10:53:51.535Z,2.95
2022-07-29T10:56:29.708Z,3.00
2022-07-29T10:59:22.743Z,2.78
2022-07-29T11:01:54.400Z,2.63
2022-07-29T11:04:44.579Z,2.70
2022-07-29T11:07:12.011Z,2.70
2022-07-29T11:09:38.873Z,3.33
2022-07-29T11:12:39.252Z,3.20
2022-07-29T11:15:08.419Z,3.33
2022-07-29T11:17:53.547Z,3.13
2022-07-29T11:20:41.552Z,3.15
2022-07-29T11:23:33.362Z,3.30
2022-07-29T11:26:12.809Z,3.35
2022-07-29T11:29:18.081Z,3.35
2022-07-29T11:31:47.791Z,3.13
2022-07-29T11:34:27.801Z,3.47
2022-07-29T11:37:08.300Z,3.10
2022-07-29T11:39:40.053Z,2.97
2022-07-29T11:42:32.323Z,3.22
2022-07-29T11:45:41.751Z,3.30
2022-07-29T11:48:28.002Z,3.30
2022-07-29T11:50:48.849Z,3.30
2022-07-29T11:53:16.466Z,3.28
2022-07-29T11:55:51.095Z,3.20
2022-07-29T11:58:24.840Z,3.33
2022-07-29T12:00:53.198Z,2.95
2022-07-29T12:03:33.545Z,3.00
2022-07-29T12:09:11.204Z,3.20
2022-07-29T12:11:41.619Z,3.37
2022-07-29T12:14:34.485Z,3.30
2022-07-29T12:17:01.541Z,3.38
2022-07-29T12:19:28.413Z,3.40
2022-07-29T12:21:59.775Z,3.60
2022-07-29T12:24:44.976Z,3.03
2022-07-29T12:27:12.956Z,3.40
2022-07-29T12:29:41.989Z,3.53
2022-07-29T12:32:19.409Z,3.80
2022-07-29T12:34:47.312Z,3.38
2022-07-29T12:37:14.410Z,3.37
2022-07-29T12:39:41.366Z,3.60
2022-07-29T12:42:18.445Z,3.30
2022-07-29T12:44:51.222Z,3.30
2022-07-29T12:47:20.286Z,3.60
2022-07-29T12:49:47.514Z,3.40
2022-07-29T12:52:29.824Z,3.53
2022-07-29T12:54:57.159Z,3.15
2022-07-29T12:57:24.366Z,3.30
2022-07-29T13:00:06.009Z,3.10
2022-07-29T13:02:33.018Z,3.77
2022-07-29T13:05:00.966Z,3.40
2022-07-29T13:07:55.674Z,3.25
2022-07-29T13:10:24.423Z,3.13
2022-07-29T13:13:12.271Z,3.17
2022-07-29T13:16:08.461Z,2.90
2022-07-29T13:18:36.606Z,3.22
2022-07-29T13:21:15.203Z,3.30
2022-07-29T13:23:43.007Z,2.90
2022-07-29T13:26:11.973Z,2.80
2022-07-29T13:28:39.322Z,3.00
2022-07-29T13:31:06.311Z,2.80
2022-07-29T13:33:33.287Z,2.95
2022-07-29T13:36:00.076Z,2.90
2022-07-29T13:38:30.992Z,3.08
2022-07-29T13:40:58.893Z,3.00
2022-07-29T13:43:25.692Z,3.83
2022-07-29T13:45:52.553Z,2.72
2022-07-29T13:48:19.528Z,3.00
2022-07-29T13:50:46.335Z,3.20
2022-07-29T13:53:17.757Z,3.30
2022-07-29T13:55:45.379Z,3.33
2022-07-29T13:58:12.153Z,5.65
2022-07-29T14:00:39.010Z,4.38
2022-07-29T14:03:05.728Z,4.03
2022-07-29T14:05:32.589Z,4.43
2022-07-29T14:07:59.334Z,4.30
2022-07-29T14:10:27.480Z,4.57
2022-07-29T14:12:54.321Z,4.40
2022-07-29T14:15:21.129Z,4.47
2022-07-29T14:17:47.934Z,4.30
2022-07-29T14:20:14.674Z,4.40
2022-07-29T14:22:42.606Z,4.00
2022-07-29T14:25:14.379Z,3.88
2022-07-29T14:27:42.950Z,3.80
2022-07-29T14:30:10.466Z,4.30
2022-07-29T14:32:37.403Z,4.20
2022-07-29T14:35:05.414Z,4.20
2022-07-29T14:37:39.934Z,5.13
2022-07-29T14:40:11.926Z,4.75
2022-07-29T14:42:41.197Z,4.80
2022-07-29T14:45:10.385Z,4.40
2022-07-29T14:47:38.137Z,4.50
2022-07-29T14:50:05.713Z,4.90
2022-07-29T14:52:32.947Z,4.53
2022-07-29T14:54:59.837Z,4.60
2022-07-29T14:57:26.597Z,4.10
2022-07-29T14:59:53.459Z,4.60
2022-07-29T15:02:20.254Z,4.80
2022-07-29T15:04:47.239Z,4.60
2022-07-29T15:07:14.004Z,4.73
2022-07-29T15:09:49.996Z,4.35
2022-07-29T15:12:17.033Z,4.70
2022-07-29T15:14:44.023Z,5.72
2022-07-29T15:17:10.886Z,5.18
2022-07-29T15:19:37.874Z,5.07
2022-07-29T15:22:05.294Z,4.78
2022-07-29T15:24:32.534Z,4.45
2022-07-29T15:26:59.562Z,4.40
2022-07-29T15:29:26.463Z,3.97
2022-07-29T15:31:53.253Z,4.50
2022-07-29T15:34:20.075Z,5.10
2022-07-29T15:36:52.374Z,4.55
2022-07-29T15:39:20.328Z,4.90
2022-07-29T15:41:47.088Z,5.85
2022-07-29T15:44:13.948Z,5.10
2022-07-29T15:46:41.088Z,5.53
2022-07-29T15:49:08.574Z,5.57
2022-07-29T15:51:35.696Z,4.80
2022-07-29T15:54:03.910Z,4.78
2022-07-29T15:56:31.667Z,5.40
2022-07-29T15:58:58.600Z,4.32
2022-07-29T16:01:25.858Z,4.07
2022-07-29T16:03:53.254Z,4.25
2022-07-29T16:06:20.270Z,4.00
2022-07-29T16:08:47.191Z,4.60
2022-07-29T16:11:13.994Z,4.13
2022-07-29T16:13:40.790Z,4.07
2022-07-29T16:16:08.960Z,4.38
2022-07-29T16:18:35.879Z,4.60
2022-07-29T16:21:02.748Z,4.80
2022-07-29T16:23:29.624Z,3.83
2022-07-29T16:26:00.133Z,3.58
2022-07-29T16:28:28.705Z,3.70
2022-07-29T16:30:55.574Z,3.25
2022-07-29T16:33:22.563Z,3.23
2022-07-29T16:35:51.016Z,3.47
2022-07-29T16:38:17.809Z,3.30
2022-07-29T16:40:44.745Z,2.85
2022-07-29T16:43:11.468Z,2.88
2022-07-29T16:45:45.352Z,3.23
2022-07-29T16:48:14.151Z,3.10
2022-07-29T16:50:41.387Z,2.97
2022-07-29T16:53:10.677Z,2.92
2022-07-29T16:55:37.775Z,3.00
2022-07-29T16:58:04.901Z,3.33
2022-07-29T17:00:31.802Z,3.20
2022-07-29T17:02:59.468Z,3.05
2022-07-29T17:05:28.534Z,2.67
2022-07-29T17:07:55.602Z,3.25
2022-07-29T17:10:22.455Z,3.47
2022-07-29T17:12:49.644Z,3.38
2022-07-29T17:15:17.374Z,3.20
2022-07-29T17:17:55.243Z,2.97
2022-07-29T17:20:25.224Z,2.83
2022-07-29T17:22:52.125Z,3.50
2022-07-29T17:25:20.548Z,3.17
2022-07-29T17:27:50.739Z,3.70
2022-07-29T17:30:18.107Z,3.38
2022-07-29T17:32:45.160Z,3.60
2022-07-29T17:35:12.725Z,3.77
2022-07-29T17:37:40.351Z,3.88
2022-07-29T17:40:07.990Z,3.83
2022-07-29T17:42:34.804Z,4.50
2022-07-29T17:45:01.733Z,4.20
2022-07-29T17:47:28.546Z,3.97
2022-07-29T17:49:55.513Z,3.80
2022-07-29T17:52:22.264Z,4.05
2022-07-29T17:54:49.063Z,3.92
2022-07-29T17:57:16.107Z,3.90
2022-07-29T17:59:43.077Z,3.87
2022-07-29T18:02:10.023Z,4.20
2022-07-29T18:04:37.568Z,4.07
2022-07-29T18:07:04.958Z,4.30
2022-07-29T18:09:31.758Z,3.97
2022-07-29T18:11:58.500Z,4.43
2022-07-29T18:14:25.406Z,4.40
2022-07-29T18:16:52.259Z,3.70
2022-07-29T18:19:19.075Z,4.25
2022-07-29T18:21:54.569Z,4.20
2022-07-29T18:24:25.597Z,4.70
2022-07-29T18:26:53.723Z,3.97
2022-07-29T18:29:21.164Z,4.13
2022-07-29T18:31:47.988Z,4.45
2022-07-29T18:34:14.945Z,4.47
2022-07-29T18:36:41.684Z,4.10
2022-07-29T18:39:08.524Z,4.80
2022-07-29T18:41:35.744Z,4.38
2022-07-29T18:44:21.909Z,4.40
2022-07-29T18:46:51.924Z,4.43
2022-07-29T18:49:19.503Z,5.00
2022-07-29T18:51:46.397Z,4.40
2022-07-29T18:54:13.224Z,4.72
2022-07-29T18:56:39.987Z,4.97
2022-07-29T18:59:06.908Z,4.80
2022-07-29T19:01:33.701Z,4.50
2022-07-29T19:04:01.065Z,4.72
2022-07-29T19:06:27.888Z,4.60
2022-07-29T19:08:54.744Z,4.50
2022-07-29T19:11:21.817Z,4.30
2022-07-29T19:13:49.645Z,4.30
2022-07-29T19:16:16.805Z,4.30
2022-07-29T19:18:43.631Z,3.70
2022-07-29T19:21:11.153Z,4.30
2022-07-29T19:24:06.009Z,4.25
2022-07-29T19:26:26.277Z,3.87
2022-07-29T19:28:53.302Z,4.68
2022-07-29T19:31:20.279Z,5.45
2022-07-29T19:33:47.142Z,5.63
2022-07-29T19:36:14.024Z,6.03
2022-07-29T19:38:40.974Z,6.00
2022-07-29T19:41:07.791Z,6.10
2022-07-29T19:43:50.965Z,5.50
2022-07-29T19:46:23.215Z,4.75
2022-07-29T19:48:50.458Z,5.00
2022-07-29T19:51:17.405Z,4.40
2022-07-29T19:53:44.236Z,5.03
2022-07-29T19:56:10.985Z,4.93
2022-07-29T19:58:37.856Z,4.55
2022-07-29T20:01:10.284Z,4.72
2022-07-29T20:03:40.640Z,4.40
2022-07-29T20:06:07.645Z,4.85
2022-07-29T20:08:34.738Z,4.85
2022-07-29T20:11:01.968Z,4.30
2022-07-29T20:13:28.866Z,4.63
2022-07-29T20:15:55.660Z,5.17
2022-07-29T20:18:22.468Z,5.00
2022-07-29T20:20:49.310Z,4.75
2022-07-29T20:23:16.220Z,4.63
2022-07-29T20:25:43.118Z,5.00
2022-07-29T20:28:09.939Z,4.33
2022-07-29T20:30:38.528Z,4.25
2022-07-29T20:33:05.933Z,3.72
2022-07-29T20:35:32.880Z,3.85
2022-07-29T20:37:59.742Z,3.60
2022-07-29T20:40:27.991Z,3.97
2022-07-29T20:42:55.703Z,4.93
2022-07-29T20:45:23.656Z,4.28
2022-07-29T20:47:51.593Z,3.60
2022-07-29T20:50:19.553Z,3.90
2022-07-29T20:52:46.316Z,5.03
2022-07-29T20:55:13.058Z,4.93
2022-07-29T20:57:40.181Z,4.38
2022-07-29T21:00:07.618Z,4.80
2022-07-29T21:02:34.508Z,4.80
2022-07-29T21:05:01.398Z,4.70
2022-07-29T21:07:28.189Z,4.40
2022-07-29T21:09:55.035Z,4.07
2022-07-29T21:12:21.780Z,4.32
2022-07-29T21:14:48.580Z,4.13
2022-07-29T21:17:16.607Z,4.10
2022-07-29T21:19:43.389Z,3.55
2022-07-29T21:22:10.420Z,3.65
2022-07-29T21:24:37.211Z,3.90
2022-07-29T21:27:19.833Z,4.20
2022-07-29T21:29:47.791Z,4.77
2022-07-29T21:32:14.729Z,4.78
2022-07-29T21:34:56.244Z,4.28
2022-07-29T21:37:23.061Z,3.88
2022-07-29T21:39:49.894Z,4.00
2022-07-29T21:42:16.692Z,3.97
2022-07-29T21:44:43.568Z,3.90
2022-07-29T21:47:11.414Z,3.83
2022-07-29T21:49:39.134Z,4.00
2022-07-29T21:52:08.064Z,3.83
2022-07-29T21:54:35.748Z,4.17
2022-07-29T21:57:03.451Z,3.60
2022-07-29T21:59:30.698Z,3.45
2022-07-29T22:01:57.878Z,3.30
2022-07-29T22:04:24.797Z,3.40
2022-07-29T22:06:51.700Z,3.10
2022-07-29T22:09:18.428Z,3.30
2022-07-29T22:11:45.391Z,3.40
2022-07-29T22:14:12.119Z,3.50
2022-07-29T22:16:38.953Z,3.83
2022-07-29T22:19:05.840Z,3.80
2022-07-29T22:21:32.746Z,3.40
2022-07-29T22:24:01.633Z,4.15
2022-07-29T22:26:28.509Z,4.00
2022-07-29T22:28:55.342Z,4.68
2022-07-29T22:31:22.244Z,4.53
2022-07-29T22:33:53.209Z,4.20
2022-07-29T22:36:20.090Z,3.97
2022-07-29T22:38:51.535Z,4.05
2022-07-29T22:41:18.913Z,3.67
2022-07-29T22:43:45.689Z,3.80
2022-07-29T22:46:12.572Z,3.55
2022-07-29T22:48:39.430Z,3.40
2022-07-29T22:51:07.043Z,3.35
2022-07-29T22:53:33.946Z,3.53
2022-07-29T22:56:00.895Z,3.40
2022-07-29T22:58:27.685Z,4.70
2022-07-29T23:00:54.689Z,4.00
2022-07-29T23:03:21.946Z,4.05
2022-07-29T23:05:48.954Z,4.50
2022-07-29T23:08:15.791Z,4.00
2022-07-29T23:10:42.688Z,3.97
2022-07-29T23:13:09.563Z,4.60
2022-07-29T23:15:36.489Z,4.22
2022-07-29T23:18:03.368Z,4.32
2022-07-29T23:20:30.174Z,4.90
2022-07-29T23:22:56.937Z,4.90
2022-07-29T23:25:23.756Z,4.35
2022-07-29T23:27:50.638Z,5.10
2022-07-29T23:30:17.551Z,4.68
2022-07-29T23:32:44.339Z,4.60
2022-07-29T23:35:11.303Z,4.35
2022-07-29T23:37:38.222Z,4.20
2022-07-29T23:40:08.675Z,4.00
2022-07-29T23:42:37.819Z,4.20
2022-07-29T23:45:05.941Z,4.07
2022-07-29T23:47:32.699Z,3.92
2022-07-29T23:49:59.600Z,3.72
2022-07-29T23:52:26.831Z,3.63
2022-07-29T23:54:54.886Z,3.78
2022-07-29T23:57:41.689Z,3.70
